Amendola, Amendola Airport (LIBA)

NameAmendola Airport
CityAmendola
CountryItaly
ICAOLIBA
IATA
Altitude56 m
CoordinatesGoogle Map
Live Air TrafficLiveATC.net
METARLIBA 171955Z 07007KT CAVOK 14/12 Q1009
2019-05-17 19:55:00 Wind: East-Northeast (70°) 3.6 m/s - Visibility: > 10000 m - Weather: CAVOK - Temperature: 14 °C - Dew point: 12 °C - Humidity: 87.9% - Pressure: 1009 hPa

Sorry, no flights used the airport in this database.